Time;durP1;ratioP1;P1;durP2;ratioP2;P2;SDS_P1;SDS_P2;PMS_P1;PMS_P2;Temp;Humidity;BMP_temperature;BMP_pressure;BME280_temperature;BME280_humidity;BME280_pressure;Samples;Min_cycle;Max_cycle;Signal;HPM_P1;HPM_P2
2021/12/17 00:08:00;;;;;;;24.70;3.62;;;;;;;4.86;100.00;102299.09;5131745;57;1141014;-74
2021/12/17 00:13:06;;;;;;;20.20;4.33;;;;;;;4.84;100.00;102308.74;5131685;57;1141098;-74
2021/12/17 00:18:21;;;;;;;22.73;3.93;;;;;;;4.82;100.00;102309.67;5182268;56;1141081;-74
2021/12/17 00:50:11;;;;;;;18.70;3.57;;;;;;;4.56;100.00;102303.78;5186518;56;1138888;-76
2021/12/17 00:55:11;;;;;;;16.83;4.07;;;;;;;4.49;100.00;102279.47;5186108;56;1139001;-75
2021/12/17 01:00:21;;;;;;;17.87;3.97;;;;;;;4.43;100.00;102273.05;5186421;57;1136965;-73
2021/12/17 01:05:30;;;;;;;21.07;4.10;;;;;;;4.38;100.00;102276.25;5186462;57;1137021;-77
2021/12/17 01:10:40;;;;;;;23.53;4.57;;;;;;;4.37;100.00;102273.67;5186501;56;1136893;-77
2021/12/17 01:15:47;;;;;;;20.47;3.97;;;;;;;4.36;100.00;102272.81;5111629;57;1136406;-75
2021/12/17 01:21:22;;;;;;;20.03;3.83;;;;;;;4.36;100.00;102283.28;5048456;57;1136817;-74
2021/12/17 01:42:22;;;;;;;14.55;3.12;;;;;;;4.27;100.00;102285.27;5019952;59;1138879;-74
2021/12/17 01:47:28;;;;;;;18.73;3.10;;;;;;;4.22;100.00;102290.60;5019840;58;1139024;-75
2021/12/17 02:03:23;;;;;;;18.13;3.53;;;;;;;4.08;100.00;102276.52;4942845;58;974165;-73
2021/12/17 02:08:29;;;;;;;20.15;4.40;;;;;;;4.05;100.00;102275.72;4940252;60;1137412;-73
2021/12/17 02:50:38;;;;;;;21.47;3.97;;;;;;;4.26;100.00;102335.48;5151665;57;1138994;-76
2021/12/17 02:55:49;;;;;;;37.33;6.00;;;;;;;4.34;100.00;102346.62;5068308;58;1138932;-75
2021/12/17 03:00:56;;;;;;;19.40;3.77;;;;;;;4.36;100.00;102339.60;5068265;58;1139257;-77
2021/12/17 03:06:02;;;;;;;31.63;4.90;;;;;;;4.41;100.00;102335.58;5150981;57;1139011;-76
2021/12/17 03:11:09;;;;;;;27.90;4.33;;;;;;;4.43;100.00;102313.66;5067910;58;1138966;-75
2021/12/17 03:16:43;;;;;;;26.93;5.27;;;;;;;4.44;100.00;102306.66;5051767;58;1136947;-75
2021/12/17 03:26:46;;;;;;;;;;;;;;;4.43;100.00;102312.34;5061540;58;1139167;-74
2021/12/17 03:31:53;;;;;;;14.70;2.83;;;;;;;4.39;100.00;102288.45;5060386;58;972394;-75
2021/12/17 03:36:59;;;;;;;14.03;3.90;;;;;;;4.35;100.00;102289.86;5057803;58;1134915;-73
2021/12/17 03:42:09;;;;;;;14.23;2.97;;;;;;;4.28;100.00;102265.56;5057080;58;1136881;-74
2021/12/17 03:47:16;;;;;;;23.77;4.37;;;;;;;4.21;100.00;102258.31;5057575;58;1136951;-77
2021/12/17 03:52:23;;;;;;;25.97;3.93;;;;;;;4.12;100.00;102258.55;5056136;58;1135981;-75
2021/12/17 03:57:29;;;;;;;22.03;4.13;;;;;;;4.06;100.00;102242.96;5025454;58;1254293;-75
2021/12/17 04:02:36;;;;;;;34.50;5.67;;;;;;;3.98;100.00;102235.72;5068184;58;1139040;-78
2021/12/17 04:07:41;;;;;;;23.25;2.27;;;;;;;3.97;100.00;102237.95;5068320;58;1138991;-75
2021/12/17 04:13:12;;;;;;;22.07;3.60;;;;;;;3.93;100.00;102228.44;5064028;57;1138967;-77
2021/12/17 04:18:09;;;;;;;29.00;4.70;;;;;;;3.91;100.00;102226.74;5111810;57;1139256;-75
2021/12/17 04:23:15;;;;;;;27.77;4.60;;;;;;;3.89;100.00;102220.23;5151611;57;1139290;-75
2021/12/17 04:28:22;;;;;;;15.53;4.00;;;;;;;3.87;100.00;102218.09;5112027;57;1139054;-77
2021/12/17 04:33:29;;;;;;;23.20;3.17;;;;;;;3.85;100.00;102214.20;4978712;58;1139491;-78
2021/12/17 04:38:36;;;;;;;14.00;2.80;;;;;;;3.78;100.00;102202.61;5043293;58;1138997;-77
2021/12/17 04:43:47;;;;;;;20.73;3.97;;;;;;;3.75;100.00;102200.92;5131580;57;1138946;-76
2021/12/17 04:59:39;;;;;;;28.40;3.33;;;;;;;3.61;100.00;102209.97;5048477;58;1138937;-75
2021/12/17 05:04:45;;;;;;;24.43;4.27;;;;;;;3.58;100.00;102216.13;5054651;57;1139038;-76
2021/12/17 05:10:02;;;;;;;18.93;4.00;;;;;;;3.56;100.00;102211.81;5048547;58;1139037;-76
2021/12/17 05:20:44;;;;;;;14.53;2.70;;;;;;;3.52;100.00;102225.40;5049458;57;1138936;-75
2021/12/17 05:25:42;;;;;;;30.10;4.70;;;;;;;3.54;100.00;102237.55;4966877;59;1139076;-75
2021/12/17 05:30:48;;;;;;;20.00;4.10;;;;;;;3.57;100.00;102241.01;5054380;57;1139054;-75
2021/12/17 05:35:59;;;;;;;25.30;5.00;;;;;;;3.59;100.00;102246.63;5103839;57;1139053;-75
2021/12/17 05:41:05;;;;;;;11.50;2.90;;;;;;;3.60;100.00;102238.33;5131561;57;1139454;-76
2021/12/17 05:46:23;;;;;;;26.10;4.40;;;;;;;3.60;100.00;102249.66;5128882;57;1137113;-76
2021/12/17 05:51:19;;;;;;;32.53;4.73;;;;;;;3.60;100.00;102258.81;5047245;58;1136892;-75
2021/12/17 05:56:25;;;;;;;17.07;4.00;;;;;;;3.61;100.00;102268.39;5131448;57;1136894;-75
2021/12/17 06:01:32;;;;;;;22.30;3.30;;;;;;;3.63;100.00;102269.22;5044239;58;1137263;-75
2021/12/17 06:06:45;;;;;;;22.47;4.10;;;;;;;3.61;100.00;102274.06;5131485;57;1137547;-75
2021/12/17 06:11:47;;;;;;;22.57;3.80;;;;;;;3.58;100.00;102263.21;5048230;58;1136866;-75
2021/12/17 06:16:55;;;;;;;17.70;3.93;;;;;;;3.58;100.00;102274.13;5112978;57;1136890;-76
2021/12/17 06:22:05;;;;;;;25.73;5.77;;;;;;;3.57;100.00;102279.80;5004905;58;1137082;-76
2021/12/17 06:27:13;;;;;;;26.87;4.53;;;;;;;3.56;100.00;102278.52;5090869;57;1136966;-75
2021/12/17 06:32:21;;;;;;;21.27;4.73;;;;;;;3.54;100.00;102287.27;5043677;58;1137160;-75
2021/12/17 06:37:28;;;;;;;28.03;8.03;;;;;;;3.55;100.00;102282.89;4999293;58;1137398;-76
2021/12/17 06:42:34;;;;;;;25.55;4.92;;;;;;;3.52;100.00;102289.48;4964410;59;1136886;-74
2021/12/17 06:47:40;;;;;;;19.03;3.77;;;;;;;3.52;100.00;102282.95;4964560;59;1136999;-73
2021/12/17 06:58:45;;;;;;;16.33;4.47;;;;;;;3.52;100.00;102291.66;4954890;59;1138986;-75
2021/12/17 07:36:22;;;;;;;16.52;4.80;;;;;;;3.58;100.00;102320.77;5070240;58;974444;-76
2021/12/17 07:41:29;;;;;;;20.53;4.67;;;;;;;3.58;100.00;102339.52;5132073;57;1137224;-75
2021/12/17 07:46:37;;;;;;;32.40;5.93;;;;;;;3.59;100.00;102330.79;5131161;57;1137214;-77
2021/12/17 07:51:42;;;;;;;21.17;4.73;;;;;;;3.60;100.00;102339.05;5131991;57;1137156;-77
2021/12/17 07:56:50;;;;;;;20.20;5.10;;;;;;;3.62;100.00;102327.67;5131112;57;1136899;-77
2021/12/17 08:01:57;;;;;;;14.73;5.27;;;;;;;3.65;100.00;102315.84;5131592;57;1136925;-77
2021/12/17 08:07:04;;;;;;;26.83;5.27;;;;;;;3.70;100.00;102314.42;5132049;57;1136970;-76
2021/12/17 08:12:11;;;;;;;27.13;4.77;;;;;;;3.75;100.00;102316.06;5131867;57;1136972;-75
2021/12/17 08:28:13;;;;;;;35.50;6.10;;;;;;;3.98;100.00;102300.30;5177209;56;1136931;-75
2021/12/17 08:33:24;;;;;;;25.70;6.57;;;;;;;4.06;100.00;102312.79;5021627;58;1134837;-75
2021/12/17 08:38:31;;;;;;;26.27;6.13;;;;;;;4.11;100.00;102324.90;5110326;57;1138997;-75
2021/12/17 08:43:39;;;;;;;35.27;6.70;;;;;;;4.18;100.00;102345.25;5021480;58;1139100;-75
2021/12/17 08:48:44;;;;;;;22.97;6.03;;;;;;;4.27;100.00;102348.98;5065494;58;1138911;-74
2021/12/17 08:53:58;;;;;;;23.93;7.17;;;;;;;4.36;100.00;102350.53;5109350;57;1139196;-76
2021/12/17 08:59:07;;;;;;;24.20;7.20;;;;;;;4.46;100.00;102354.20;5112436;57;1138818;-76
2021/12/17 09:04:15;;;;;;;28.10;5.07;;;;;;;4.56;100.00;102355.73;5114429;57;1139266;-75
2021/12/17 09:09:23;;;;;;;31.23;7.27;;;;;;;4.61;100.00;102342.50;5018597;58;1139167;-75
2021/12/17 09:14:29;;;;;;;21.13;6.53;;;;;;;4.66;100.00;102341.95;4982946;59;1139020;-77
2021/12/17 09:19:40;;;;;;;22.93;6.33;;;;;;;4.70;100.00;102351.47;5065430;58;1139238;-76
2021/12/17 09:24:47;;;;;;;26.67;6.40;;;;;;;4.73;100.00;102366.27;5067195;58;1139163;-76
2021/12/17 09:29:55;;;;;;;23.83;6.20;;;;;;;4.78;100.00;102365.69;5068301;58;1141041;-76
2021/12/17 09:35:01;;;;;;;23.03;4.97;;;;;;;4.80;100.00;102370.00;5020143;58;1139277;-75
2021/12/17 09:40:11;;;;;;;28.23;6.62;;;;;;;4.80;100.00;102369.14;5015340;59;1138957;-76
2021/12/17 09:45:18;;;;;;;17.70;4.83;;;;;;;4.81;100.00;102361.24;5005092;59;1139126;-75
2021/12/17 09:50:24;;;;;;;29.17;4.67;;;;;;;4.88;100.00;102355.41;5054740;58;1139182;-82
2021/12/17 09:55:29;;;;;;;23.30;5.40;;;;;;;4.93;100.00;102362.25;5057240;58;1139005;-78
2021/12/17 10:00:36;;;;;;;20.83;4.67;;;;;;;4.97;100.00;102357.80;5050375;58;1141213;-79
2021/12/17 10:05:44;;;;;;;21.03;5.37;;;;;;;5.05;100.00;102354.96;5046700;58;1141334;-81
2021/12/17 10:10:59;;;;;;;24.23;5.73;;;;;;;5.12;100.00;102359.16;5035645;58;1141054;-79
2021/12/17 10:16:12;;;;;;;29.63;6.80;;;;;;;5.15;100.00;102354.71;5029851;58;1141099;-82
2021/12/17 10:21:23;;;;;;;29.27;5.53;;;;;;;5.20;100.00;102357.19;4933601;58;1141159;-79
2021/12/17 10:26:32;;;;;;;31.95;7.37;;;;;;;5.22;100.00;102371.13;5048760;58;1139081;-79
2021/12/17 10:31:39;;;;;;;20.43;4.00;;;;;;;5.24;100.00;102366.27;4997865;57;1141058;-80
2021/12/17 10:36:45;;;;;;;26.03;5.60;;;;;;;5.29;100.00;102363.08;5018203;58;1141306;-81
2021/12/17 10:41:51;;;;;;;18.00;3.90;;;;;;;5.27;100.00;102366.64;5092134;57;1139012;-82
2021/12/17 10:47:29;;;;;;;10.17;2.83;;;;;;;5.26;100.00;102365.78;5003386;58;1138999;-80
2021/12/17 10:52:18;;;;;;;13.70;3.63;;;;;;;5.24;100.00;102355.77;5000187;58;1136981;-80
2021/12/17 10:57:28;;;;;;;20.83;6.33;;;;;;;5.28;100.00;102358.73;5002241;58;1139064;-80
2021/12/17 11:02:36;;;;;;;21.83;4.07;;;;;;;5.30;100.00;102364.80;4993332;58;1139020;-80
2021/12/17 11:07:51;;;;;;;19.10;4.03;;;;;;;5.34;100.00;102361.66;5103925;57;1138901;-79
2021/12/17 11:12:57;;;;;;;39.43;9.60;;;;;;;5.37;100.00;102360.69;5030613;58;1139030;-83
2021/12/17 11:18:06;;;;;;;26.15;5.47;;;;;;;5.39;100.00;102368.94;5015276;58;1136938;-81
2021/12/17 11:23:16;;;;;;;23.83;5.33;;;;;;;5.46;100.00;102363.09;4994842;58;1138963;-78
2021/12/17 11:28:23;;;;;;;17.67;4.87;;;;;;;5.48;100.00;102361.28;5079952;57;1139053;-81
2021/12/17 11:33:29;;;;;;;24.93;5.23;;;;;;;5.51;100.00;102351.55;5030841;58;1139098;-82
2021/12/17 11:38:48;;;;;;;15.63;3.87;;;;;;;5.55;100.00;102358.44;5037790;58;1136977;-83
2021/12/17 11:44:03;;;;;;;23.23;5.17;;;;;;;5.59;100.00;102348.72;4957327;58;1139104;-81
2021/12/17 11:49:23;;;;;;;22.83;4.50;;;;;;;5.58;100.00;102332.56;5038102;58;1141301;-81
2021/12/17 11:54:32;;;;;;;21.73;5.00;;;;;;;5.56;100.00;102352.29;5120692;57;1139037;-82
2021/12/17 11:59:43;;;;;;;24.30;3.20;;;;;;;5.54;100.00;102348.84;5037621;58;1138851;-78
2021/12/17 12:05:06;;;;;;;16.23;3.73;;;;;;;5.53;100.00;102344.94;5100272;57;1139134;-82
2021/12/17 12:10:19;;;;;;;23.40;6.22;;;;;;;5.54;100.00;102342.28;5121999;57;1139035;-79
2021/12/17 12:15:28;;;;;;;15.07;5.87;;;;;;;5.55;100.00;102341.38;5040654;57;1139239;-82
2021/12/17 12:20:57;;;;;;;17.05;3.65;;;;;;;5.55;100.00;102344.45;5038004;58;1139038;-80
2021/12/17 12:26:11;;;;;;;7.17;1.93;;;;;;;5.55;100.00;102336.13;5119898;57;1140987;-80
2021/12/17 12:31:28;;;;;;;16.97;3.37;;;;;;;5.55;100.00;102337.89;5037962;58;1136942;-82
2021/12/17 12:36:53;;;;;;;10.27;2.60;;;;;;;5.55;100.00;102338.75;5120595;57;1139183;-81
2021/12/17 12:42:06;;;;;;;25.47;4.07;;;;;;;5.61;100.00;102337.73;5021523;58;1141149;-79
2021/12/17 12:47:26;;;;;;;19.77;4.07;;;;;;;5.59;100.00;102348.27;4989564;58;1139023;-82
2021/12/17 12:52:48;;;;;;;17.90;4.13;;;;;;;5.56;100.00;102343.55;5045239;57;1139402;-79
2021/12/17 12:58:06;;;;;;;18.20;4.33;;;;;;;5.54;100.00;102346.22;5038910;58;1139373;-81
2021/12/17 13:03:21;;;;;;;17.90;4.07;;;;;;;5.58;100.00;102336.05;5074043;57;1137481;-80
2021/12/17 13:08:30;;;;;;;17.07;4.00;;;;;;;5.56;100.00;102332.60;5121673;57;1137144;-81
2021/12/17 13:13:58;;;;;;;12.57;3.03;;;;;;;5.54;100.00;102333.09;5121744;57;1139280;-80
2021/12/17 13:24:32;;;;;;;21.02;6.28;;;;;;;5.56;100.00;102333.05;5063520;58;1139351;-79
2021/12/17 13:29:43;;;;;;;32.38;10.03;;;;;;;5.48;99.19;102341.16;4957940;58;1139186;-79
2021/12/17 13:34:56;;;;;;;24.97;6.90;;;;;;;5.44;99.97;102350.45;5039156;58;1139209;-79
2021/12/17 13:40:09;;;;;;;41.10;9.83;;;;;;;5.37;100.00;102348.88;5039214;58;1137001;-83
2021/12/17 13:45:18;;;;;;;16.85;5.62;;;;;;;5.36;100.00;102355.03;5039393;58;1141037;-79
2021/12/17 13:50:36;;;;;;;25.50;4.43;;;;;;;5.34;100.00;102358.17;5038995;58;1139279;-80
2021/12/17 13:55:45;;;;;;;26.27;7.50;;;;;;;5.33;100.00;102363.88;4958661;59;1139426;-79
2021/12/17 14:00:58;;;;;;;20.83;7.47;;;;;;;5.29;100.00;102359.14;4958510;59;1141218;-82
2021/12/17 14:06:17;;;;;;;25.50;7.27;;;;;;;5.28;100.00;102360.05;5131612;57;1139016;-79
2021/12/17 14:11:32;;;;;;;38.38;9.93;;;;;;;5.29;100.00;102355.66;5048072;57;1139034;-79
2021/12/17 14:16:41;;;;;;;23.53;5.67;;;;;;;5.27;100.00;102361.39;5027767;58;1141002;-77
2021/12/17 14:21:46;;;;;;;29.00;7.00;;;;;;;5.25;100.00;102375.00;5101112;57;1138970;-79
2021/12/17 14:26:52;;;;;;;20.70;4.60;;;;;;;5.24;100.00;102372.82;4997797;58;1141198;-78
2021/12/17 14:32:01;;;;;;;25.77;5.47;;;;;;;5.21;100.00;102372.89;5019771;58;1139322;-77
2021/12/17 14:37:06;;;;;;;38.37;11.83;;;;;;;5.16;100.00;102364.75;5092972;57;1139014;-80
2021/12/17 14:42:14;;;;;;;31.67;8.33;;;;;;;5.13;100.00;102374.00;5098242;57;1143163;-79
2021/12/17 14:47:35;;;;;;;18.37;4.57;;;;;;;5.11;100.00;102376.66;5082512;57;1139327;-82
2021/12/17 14:59:25;;;;;;;20.70;5.33;;;;;;;5.02;100.00;102363.80;4994272;58;1141118;-82
2021/12/17 15:03:40;;;;;;;27.17;6.60;;;;;;;4.90;100.00;102362.31;4972806;58;1136887;-81
2021/12/17 15:08:36;;;;;;;22.63;7.43;;;;;;;4.77;100.00;102363.52;5098371;57;1137513;-82
2021/12/17 15:13:42;;;;;;;23.17;7.70;;;;;;;4.64;100.00;102369.95;5121991;57;1137215;-80
2021/12/17 15:18:48;;;;;;;22.30;5.57;;;;;;;4.54;100.00;102356.66;5063022;57;1137242;-79
2021/12/17 15:23:54;;;;;;;30.17;7.67;;;;;;;4.41;100.00;102348.23;4959431;58;1136316;-80
2021/12/17 15:29:01;;;;;;;24.40;6.93;;;;;;;4.31;100.00;102351.06;5000128;58;1137027;-81
2021/12/17 15:34:07;;;;;;;108.40;57.73;;;;;;;4.23;100.00;102358.66;5079337;57;1137093;-81
2021/12/17 15:39:13;;;;;;;64.75;43.95;;;;;;;4.23;100.00;102372.20;5052101;58;1141180;-81
2021/12/17 15:44:18;;;;;;;49.03;37.73;;;;;;;4.18;100.00;102381.46;5088665;57;1139033;-81
2021/12/17 15:49:24;;;;;;;15.37;6.07;;;;;;;4.16;100.00;102389.80;5058487;58;1139270;-80
2021/12/17 15:54:31;;;;;;;39.60;19.53;;;;;;;4.15;100.00;102409.45;5058464;58;1136998;-81
2021/12/17 15:59:36;;;;;;;28.87;11.87;;;;;;;4.14;100.00;102415.14;5059226;58;1138988;-79
2021/12/17 16:04:44;;;;;;;18.87;5.20;;;;;;;4.09;100.00;102410.47;5058438;58;1139312;-80
2021/12/17 16:26:02;;;;;;;23.80;6.42;;;;;;;4.00;100.00;102404.53;5075950;57;1139338;-80
2021/12/17 16:31:20;;;;;;;24.40;9.73;;;;;;;3.96;100.00;102413.37;5062662;57;1139042;-79
2021/12/17 16:36:28;;;;;;;25.63;8.10;;;;;;;3.95;100.00;102426.91;5109280;57;1139257;-80
2021/12/17 16:41:35;;;;;;;17.83;6.30;;;;;;;3.89;100.00;102435.73;5120536;57;1139088;-80
2021/12/17 16:51:59;;;;;;;33.73;12.73;;;;;;;3.82;100.00;102453.73;5107773;57;1139196;-78
2021/12/17 16:57:06;;;;;;;31.60;10.97;;;;;;;3.83;100.00;102454.16;5151847;57;1141109;-79
2021/12/17 17:02:11;;;;;;;22.27;8.37;;;;;;;3.80;100.00;102458.16;5151691;57;1141318;-79
2021/12/17 17:07:17;;;;;;;36.10;13.23;;;;;;;3.78;100.00;102463.00;5149282;57;1139016;-81
2021/12/17 17:12:25;;;;;;;26.40;12.67;;;;;;;3.72;100.00;102473.13;5140368;57;1141069;-80
2021/12/17 17:17:30;;;;;;;23.33;9.37;;;;;;;3.68;100.00;102477.12;5102340;57;1141112;-80
2021/12/17 17:22:36;;;;;;;21.15;7.00;;;;;;;3.64;100.00;102487.25;5056467;57;1139145;-78
2021/12/17 17:27:42;;;;;;;27.43;8.03;;;;;;;3.61;100.00;102492.53;5056951;57;1139382;-81
2021/12/17 17:32:47;;;;;;;31.07;11.73;;;;;;;3.54;100.00;102492.62;5074500;57;1138995;-79
2021/12/17 17:37:53;;;;;;;37.47;10.00;;;;;;;3.48;100.00;102485.34;5118147;57;1141375;-79
2021/12/17 17:42:59;;;;;;;29.53;8.53;;;;;;;3.39;100.00;102482.41;5103982;57;1141345;-78
2021/12/17 17:48:07;;;;;;;28.07;6.63;;;;;;;3.30;100.00;102482.58;5141225;57;1139146;-81
2021/12/17 17:53:14;;;;;;;25.07;6.47;;;;;;;3.12;100.00;102468.48;5126014;57;1139122;-78
2021/12/17 17:58:20;;;;;;;18.13;5.33;;;;;;;2.93;100.00;102479.64;5112364;57;1139035;-81
2021/12/17 18:03:25;;;;;;;41.17;12.13;;;;;;;2.93;100.00;102479.64;5098002;57;1139032;-81
2021/12/17 18:08:32;;;;;;;40.67;14.93;;;;;;;2.88;100.00;102480.18;5062615;58;1141054;-78
2021/12/17 18:13:38;;;;;;;62.30;22.27;;;;;;;2.85;100.00;102484.14;5095599;57;1141095;-77
2021/12/17 18:18:43;;;;;;;47.57;17.40;;;;;;;2.88;100.00;102506.75;5112620;57;1141053;-77
2021/12/17 18:23:49;;;;;;;205.30;104.60;;;;;;;2.90;100.00;102516.30;5152319;57;1139046;-76
2021/12/17 18:28:58;;;;;;;344.70;104.17;;;;;;;2.96;100.00;102524.04;5146931;57;1143562;-76
2021/12/17 18:34:04;;;;;;;43.17;14.23;;;;;;;2.98;100.00;102532.73;5116953;57;1143471;-74
2021/12/17 18:39:09;;;;;;;44.87;19.83;;;;;;;2.99;100.00;102535.77;5115768;57;1138901;-74
2021/12/17 18:44:18;;;;;;;67.20;29.33;;;;;;;2.95;100.00;102533.20;5125346;57;1139122;-75
2021/12/17 18:49:26;;;;;;;50.60;18.40;;;;;;;2.93;100.00;102542.81;5104745;57;1139125;-74
2021/12/17 18:54:31;;;;;;;53.57;16.80;;;;;;;2.89;100.00;102549.86;5130576;57;1139037;-76
2021/12/17 18:59:37;;;;;;;60.60;19.03;;;;;;;2.95;100.00;102560.65;5117873;57;1139078;-75
2021/12/17 19:04:43;;;;;;;56.57;20.33;;;;;;;3.00;100.00;102561.46;5125512;57;1139043;-75
2021/12/17 19:09:49;;;;;;;40.23;14.70;;;;;;;3.05;100.00;102564.89;5141147;57;1139176;-76
2021/12/17 19:14:55;;;;;;;33.17;10.33;;;;;;;3.09;100.00;102567.41;5141978;57;1139034;-77
2021/12/17 19:20:13;;;;;;;42.90;11.57;;;;;;;3.06;100.00;102554.82;5098124;57;1139301;-74
2021/12/17 19:25:14;;;;;;;24.60;9.53;;;;;;;3.03;100.00;102574.05;5092413;57;1139124;-75
2021/12/17 19:30:20;;;;;;;32.97;11.73;;;;;;;3.05;100.00;102568.81;5118779;57;1136919;-75
2021/12/17 19:35:26;;;;;;;26.80;8.43;;;;;;;3.05;100.00;102562.27;5068483;58;1139087;-75
2021/12/17 19:40:33;;;;;;;42.10;12.73;;;;;;;3.01;100.00;102556.22;5065139;58;1134921;-77
2021/12/17 19:45:39;;;;;;;33.13;9.77;;;;;;;2.99;100.00;102576.72;5094215;57;1136926;-76
2021/12/17 19:50:44;;;;;;;37.23;12.93;;;;;;;2.98;100.00;102564.09;5068208;58;21492;-75
2021/12/17 19:55:51;;;;;;;39.57;12.07;;;;;;;2.94;100.00;102571.55;5120588;57;1136993;-74
2021/12/17 20:00:56;;;;;;;29.30;9.80;;;;;;;2.94;100.00;102580.69;4986130;58;1141323;-75
2021/12/17 20:06:01;;;;;;;26.97;8.70;;;;;;;2.95;100.00;102573.72;5131967;57;1141203;-76
2021/12/17 20:11:07;;;;;;;23.87;8.30;;;;;;;2.94;100.00;102579.38;5048823;58;1139016;-77
2021/12/17 20:16:13;;;;;;;54.97;17.40;;;;;;;2.97;100.00;102590.25;5048766;58;1139055;-76
2021/12/17 20:21:19;;;;;;;34.43;10.90;;;;;;;2.94;100.00;102584.61;5048037;58;1141157;-77
2021/12/17 20:26:25;;;;;;;27.33;9.13;;;;;;;2.94;100.00;102565.45;5084106;57;1141169;-76
2021/12/17 20:31:31;;;;;;;43.40;10.77;;;;;;;2.92;100.00;102582.89;5086220;57;1139123;-76
2021/12/17 20:36:37;;;;;;;50.23;11.87;;;;;;;2.91;100.00;102591.63;5100364;57;1141090;-77
2021/12/17 20:41:46;;;;;;;39.37;10.60;;;;;;;2.90;100.00;102572.94;5039038;58;1141128;-77
2021/12/17 20:46:53;;;;;;;32.90;10.10;;;;;;;2.88;100.00;102583.41;5055482;58;1141120;-79
2021/12/17 20:51:59;;;;;;;39.10;15.07;;;;;;;2.78;100.00;102583.08;4970441;59;1141059;-79
2021/12/17 20:57:05;;;;;;;35.20;11.70;;;;;;;2.83;100.00;102582.14;4968939;59;1141125;-78
2021/12/17 21:02:10;;;;;;;47.73;18.33;;;;;;;2.83;100.00;102587.38;4963283;59;1141203;-77
2021/12/17 21:07:16;;;;;;;61.77;30.20;;;;;;;2.82;100.00;102591.30;5019922;58;1141049;-80
2021/12/17 21:12:22;;;;;;;42.80;18.27;;;;;;;2.83;100.00;102579.53;5019875;59;1141118;-78
2021/12/17 21:17:28;;;;;;;57.00;31.37;;;;;;;2.80;100.00;102577.39;5019973;58;1141089;-77
2021/12/17 21:22:33;;;;;;;40.63;15.00;;;;;;;2.74;100.00;102583.58;5019793;59;1141115;-77
2021/12/17 21:27:39;;;;;;;67.63;34.20;;;;;;;2.72;100.00;102570.11;5019310;59;1141049;-77
2021/12/17 21:32:45;;;;;;;33.10;16.67;;;;;;;2.69;100.00;102587.98;5101289;57;1141071;-77
2021/12/17 21:37:58;;;;;;;31.73;11.50;;;;;;;2.69;100.00;102581.89;5101799;57;1141083;-78
2021/12/17 21:43:05;;;;;;;24.65;7.05;;;;;;;2.69;100.00;102585.38;5127675;57;1141084;-77
2021/12/17 21:48:11;;;;;;;19.27;6.67;;;;;;;2.73;100.00;102583.16;5171273;57;1139044;-80
2021/12/17 21:53:17;;;;;;;21.77;4.97;;;;;;;2.74;100.00;102595.34;5113865;57;1139235;-78
2021/12/17 21:58:24;;;;;;;32.80;7.93;;;;;;;2.77;100.00;102597.02;5143982;57;1138917;-80
2021/12/17 22:03:32;;;;;;;23.13;5.97;;;;;;;2.76;100.00;102606.61;5083918;57;1139040;-80
2021/12/17 22:08:38;;;;;;;21.70;6.03;;;;;;;2.77;100.00;102607.47;5154428;57;1138946;-78
2021/12/17 22:13:44;;;;;;;26.17;6.20;;;;;;;2.75;100.00;102604.05;5043882;58;1139029;-78
2021/12/17 22:18:50;;;;;;;21.60;5.23;;;;;;;2.74;100.00;102597.95;5162067;57;1138934;-80
2021/12/17 22:23:56;;;;;;;20.57;5.73;;;;;;;2.76;100.00;102593.98;5131496;57;1139038;-82
2021/12/17 22:29:02;;;;;;;27.37;5.53;;;;;;;2.76;100.00;102590.93;5048497;58;1139021;-79
2021/12/17 22:34:09;;;;;;;19.67;6.23;;;;;;;2.71;100.00;102569.24;5048008;58;1138965;-78
2021/12/17 22:39:15;;;;;;;23.20;5.80;;;;;;;2.69;100.00;102580.15;5048572;58;1139193;-79
2021/12/17 22:44:22;;;;;;;17.07;3.83;;;;;;;2.67;100.00;102583.66;5181182;56;1138984;-81
2021/12/17 22:49:29;;;;;;;25.60;5.57;;;;;;;2.65;100.00;102579.75;5174848;56;1139001;-79
2021/12/17 22:54:36;;;;;;;18.63;7.30;;;;;;;2.63;100.00;102578.91;5175054;56;1139107;-79
2021/12/17 22:59:42;;;;;;;31.73;7.17;;;;;;;2.62;100.00;102585.00;5175203;56;1139064;-79
2021/12/17 23:04:56;;;;;;;26.13;6.40;;;;;;;2.58;100.00;102587.25;5175696;57;1136949;-80
2021/12/17 23:09:55;;;;;;;15.10;4.80;;;;;;;2.53;100.00;102577.29;5119741;57;1136884;-79
2021/12/17 23:15:00;;;;;;;27.77;7.93;;;;;;;2.51;100.00;102574.27;5037816;58;1136961;-80
2021/12/17 23:20:07;;;;;;;34.80;10.00;;;;;;;2.46;100.00;102575.61;5037866;58;1136932;-80
2021/12/17 23:25:13;;;;;;;26.82;7.25;;;;;;;2.42;100.00;102587.87;5102017;58;1138948;-80
2021/12/17 23:30:19;;;;;;;25.65;6.22;;;;;;;2.39;100.00;102599.64;5101999;58;1136870;-80
2021/12/17 23:35:32;;;;;;;24.03;5.57;;;;;;;2.34;100.00;102597.95;5102133;58;1136898;-80
2021/12/17 23:40:32;;;;;;;22.80;6.27;;;;;;;2.32;100.00;102596.66;5101401;57;1136921;-80
2021/12/17 23:45:37;;;;;;;17.70;5.17;;;;;;;2.24;100.00;102595.88;5115234;57;1136930;-81
2021/12/17 23:50:44;;;;;;;18.23;5.30;;;;;;;2.16;100.00;102588.98;5131789;57;1136994;-78
2021/12/17 23:55:50;;;;;;;16.47;4.43;;;;;;;2.13;100.00;102591.66;5121106;57;1136973;-78
